createdAt,value
2023-07-07T00:02:24.518Z,7.82
2023-07-07T00:04:51.953Z,7.22
2023-07-07T00:07:19.206Z,7.05
2023-07-07T00:09:45.969Z,6.68
2023-07-07T00:12:14.249Z,6.78
2023-07-07T00:14:41.399Z,6.32
2023-07-07T00:17:09.190Z,7.97
2023-07-07T00:19:36.101Z,7.30
2023-07-07T00:22:03.874Z,6.57
2023-07-07T00:24:30.705Z,6.80
2023-07-07T00:26:57.456Z,6.90
2023-07-07T00:29:24.293Z,6.55
2023-07-07T00:31:51.127Z,6.50
2023-07-07T00:34:17.870Z,7.85
2023-07-07T00:36:44.724Z,8.13
2023-07-07T00:39:11.612Z,7.88
2023-07-07T00:41:38.554Z,7.28
2023-07-07T00:44:10.693Z,7.50
2023-07-07T00:46:39.338Z,7.88
2023-07-07T00:49:13.014Z,7.68
2023-07-07T00:51:47.215Z,8.02
2023-07-07T00:54:17.711Z,7.30
2023-07-07T00:56:50.650Z,8.98
2023-07-07T00:59:22.403Z,8.02
2023-07-07T01:01:53.582Z,7.97
2023-07-07T01:04:21.779Z,8.90
2023-07-07T01:06:54.428Z,8.88
2023-07-07T01:11:48.396Z,9.93
2023-07-07T01:14:28.373Z,9.27
2023-07-07T01:17:22.182Z,9.95
2023-07-07T01:20:10.818Z,10.15
2023-07-07T01:22:58.620Z,8.70
2023-07-07T01:25:56.382Z,8.80
2023-07-07T01:28:32.792Z,8.85
2023-07-07T01:31:17.995Z,9.40
2023-07-07T01:33:47.808Z,10.05
2023-07-07T01:36:15.330Z,9.85
2023-07-07T01:38:45.483Z,10.77
2023-07-07T01:41:18.336Z,10.35
2023-07-07T01:44:15.891Z,9.50
2023-07-07T01:46:56.889Z,11.65
2023-07-07T01:49:31.915Z,10.10
2023-07-07T01:52:11.688Z,10.55
2023-07-07T01:54:44.553Z,10.85
2023-07-07T01:57:13.444Z,10.55
2023-07-07T01:59:42.722Z,10.10
2023-07-07T02:02:09.894Z,8.75
2023-07-07T02:04:36.717Z,9.75
2023-07-07T02:07:04.213Z,10.05
2023-07-07T02:09:31.043Z,9.93
2023-07-07T02:11:58.013Z,11.07
2023-07-07T02:14:24.925Z,11.20
2023-07-07T02:16:52.275Z,10.35
2023-07-07T02:19:19.075Z,10.40
2023-07-07T02:21:45.776Z,10.73
2023-07-07T02:24:12.631Z,10.50
2023-07-07T02:26:40.479Z,11.13
2023-07-07T02:29:07.240Z,10.27
2023-07-07T02:31:34.037Z,10.13
2023-07-07T02:34:00.830Z,10.90
2023-07-07T02:36:30.350Z,11.20
2023-07-07T02:38:58.656Z,10.07
2023-07-07T02:41:25.385Z,11.20
2023-07-07T02:43:54.559Z,10.98
2023-07-07T02:46:22.289Z,10.82
2023-07-07T02:48:49.062Z,10.77
2023-07-07T02:51:15.811Z,10.93
2023-07-07T02:53:42.557Z,11.75
2023-07-07T02:56:09.402Z,13.52
2023-07-07T02:58:36.331Z,12.55
2023-07-07T03:01:12.294Z,12.90
2023-07-07T03:03:42.775Z,12.98
2023-07-07T03:06:12.884Z,12.85
2023-07-07T03:08:40.260Z,12.63
2023-07-07T03:11:09.596Z,13.30
2023-07-07T03:13:38.428Z,13.98
2023-07-07T03:16:09.969Z,14.02
2023-07-07T03:18:41.147Z,13.27
2023-07-07T03:21:09.508Z,11.98
2023-07-07T03:23:39.519Z,12.88
2023-07-07T03:26:13.956Z,12.77
2023-07-07T03:28:41.270Z,12.40
2023-07-07T03:31:14.203Z,12.93
2023-07-07T03:33:46.553Z,13.10
2023-07-07T03:36:14.915Z,12.98
2023-07-07T03:38:42.974Z,11.48
2023-07-07T03:41:15.599Z,12.90
2023-07-07T03:43:46.397Z,13.18
2023-07-07T03:46:21.094Z,12.45
2023-07-07T03:48:49.958Z,13.13
2023-07-07T03:51:19.319Z,13.80
2023-07-07T03:53:46.222Z,13.75
2023-07-07T03:56:14.709Z,12.98
2023-07-07T03:58:41.545Z,13.25
2023-07-07T04:01:11.805Z,12.48
2023-07-07T04:03:38.773Z,13.15
2023-07-07T04:06:06.634Z,11.68
2023-07-07T04:08:34.588Z,13.25
2023-07-07T04:11:12.065Z,12.27
2023-07-07T04:13:40.798Z,12.20
2023-07-07T04:16:11.478Z,13.10
2023-07-07T04:18:39.149Z,12.45
2023-07-07T04:21:08.622Z,13.15
2023-07-07T04:23:37.640Z,12.40
2023-07-07T04:26:05.703Z,12.27
2023-07-07T04:28:33.028Z,12.20
2023-07-07T04:31:00.360Z,12.20
2023-07-07T04:33:29.262Z,12.18
2023-07-07T04:35:58.396Z,12.40
2023-07-07T04:38:31.754Z,12.25
2023-07-07T04:41:06.465Z,12.48
2023-07-07T04:43:34.568Z,13.13
2023-07-07T04:46:04.023Z,12.50
2023-07-07T04:48:31.078Z,12.65
2023-07-07T04:51:03.784Z,12.30
2023-07-07T04:53:34.405Z,13.18
2023-07-07T04:56:03.433Z,11.73
2023-07-07T04:58:30.634Z,13.25
2023-07-07T05:01:16.832Z,13.35
2023-07-07T05:03:45.053Z,12.75
2023-07-07T05:06:13.110Z,14.55
2023-07-07T05:08:42.301Z,13.40
2023-07-07T05:11:12.456Z,13.43
2023-07-07T05:13:39.398Z,13.05
2023-07-07T05:16:11.965Z,12.68
2023-07-07T05:21:09.115Z,12.05
2023-07-07T05:23:37.151Z,12.15
2023-07-07T05:26:04.834Z,12.88
2023-07-07T05:28:31.709Z,12.60
2023-07-07T05:30:58.900Z,12.95
2023-07-07T05:33:26.750Z,11.80
2023-07-07T05:35:55.677Z,13.32
2023-07-07T05:38:24.772Z,11.85
2023-07-07T05:40:51.917Z,11.32
2023-07-07T05:43:20.367Z,13.00
2023-07-07T05:45:47.361Z,12.07
2023-07-07T05:48:15.515Z,12.82
2023-07-07T05:50:45.115Z,12.75
2023-07-07T05:53:12.445Z,11.77
2023-07-07T05:55:39.935Z,11.05
2023-07-07T05:58:07.086Z,11.27
2023-07-07T06:00:35.185Z,13.13
2023-07-07T06:03:02.161Z,11.25
2023-07-07T06:05:29.728Z,11.40
2023-07-07T06:07:56.849Z,11.38
2023-07-07T06:10:23.751Z,10.93
2023-07-07T06:12:50.536Z,10.85
2023-07-07T06:15:17.729Z,12.15
2023-07-07T06:17:47.557Z,10.52
2023-07-07T06:20:15.229Z,10.30
2023-07-07T06:22:41.959Z,10.82
2023-07-07T06:25:09.530Z,10.20
2023-07-07T06:27:36.217Z,11.48
2023-07-07T06:30:03.355Z,10.20
2023-07-07T06:32:30.075Z,9.63
2023-07-07T06:34:56.834Z,9.30
2023-07-07T06:37:23.525Z,9.38
2023-07-07T06:39:50.361Z,9.18
2023-07-07T06:42:17.852Z,10.18
2023-07-07T06:44:54.507Z,8.60
2023-07-07T06:47:21.425Z,9.15
2023-07-07T06:49:48.241Z,9.93
2023-07-07T06:52:15.031Z,10.25
2023-07-07T06:54:41.809Z,7.85
2023-07-07T06:57:10.258Z,8.82
2023-07-07T06:59:37.187Z,8.18
2023-07-07T07:02:04.095Z,7.30
2023-07-07T07:04:30.871Z,7.90
2023-07-07T07:06:57.631Z,7.22
2023-07-07T07:09:24.397Z,7.45
2023-07-07T07:11:51.121Z,6.97
2023-07-07T07:14:17.884Z,8.85
2023-07-07T07:16:44.654Z,7.05
2023-07-07T07:19:11.397Z,6.88
2023-07-07T07:21:38.098Z,6.20
2023-07-07T07:24:05.152Z,6.53
2023-07-07T07:26:31.860Z,7.85
2023-07-07T07:28:58.584Z,7.15
2023-07-07T07:31:25.691Z,7.10
2023-07-07T07:33:55.048Z,5.65
2023-07-07T07:36:22.884Z,5.88
2023-07-07T07:38:49.599Z,7.07
2023-07-07T07:41:16.405Z,4.53
2023-07-07T07:43:43.206Z,5.78
2023-07-07T07:46:09.943Z,5.20
2023-07-07T07:48:36.687Z,5.28
2023-07-07T07:51:03.728Z,5.35
2023-07-07T07:53:33.706Z,4.93
2023-07-07T07:56:00.739Z,4.97
2023-07-07T07:58:27.533Z,4.22
2023-07-07T08:00:54.335Z,5.25
2023-07-07T08:03:21.360Z,3.92
2023-07-07T08:05:48.260Z,3.83
2023-07-07T08:08:17.361Z,3.90
2023-07-07T08:10:45.125Z,3.25
2023-07-07T08:13:18.154Z,3.42
2023-07-07T08:15:51.598Z,3.00
2023-07-07T08:18:18.324Z,4.03
2023-07-07T08:20:45.094Z,2.95
2023-07-07T08:23:11.910Z,3.40
2023-07-07T08:25:38.630Z,4.03
2023-07-07T08:28:08.415Z,2.92
2023-07-07T08:30:35.288Z,2.88
2023-07-07T08:33:02.310Z,3.10
2023-07-07T08:35:29.226Z,3.65
2023-07-07T08:37:55.983Z,3.13
2023-07-07T08:40:29.204Z,2.95
2023-07-07T08:42:55.922Z,2.92
2023-07-07T08:45:24.157Z,2.67
2023-07-07T08:48:19.966Z,3.10
2023-07-07T08:50:54.591Z,2.95
2023-07-07T08:53:31.801Z,2.65
2023-07-07T08:56:22.983Z,2.58
2023-07-07T08:58:58.637Z,2.40
2023-07-07T09:01:42.736Z,2.38
2023-07-07T09:04:28.285Z,2.42
2023-07-07T09:07:25.811Z,2.70
2023-07-07T09:10:22.748Z,2.78
2023-07-07T09:12:56.320Z,2.72
2023-07-07T09:15:26.961Z,2.90
2023-07-07T09:18:00.444Z,2.38
2023-07-07T09:20:30.849Z,2.35
2023-07-07T09:23:03.397Z,2.35
2023-07-07T09:25:53.417Z,2.70
2023-07-07T09:28:20.513Z,2.50
2023-07-07T09:30:53.961Z,2.55
2023-07-07T09:33:24.391Z,2.67
2023-07-07T09:36:02.917Z,2.22
2023-07-07T09:38:44.756Z,2.35
2023-07-07T09:41:27.392Z,2.65
2023-07-07T09:44:06.375Z,2.20
2023-07-07T09:46:39.280Z,2.67
2023-07-07T09:49:11.953Z,2.30
2023-07-07T09:51:46.034Z,2.70
2023-07-07T09:54:16.796Z,2.30
2023-07-07T09:56:56.499Z,2.83
2023-07-07T09:59:28.871Z,2.70
2023-07-07T10:01:56.720Z,2.53
2023-07-07T10:04:25.945Z,2.22
2023-07-07T10:06:55.588Z,2.50
2023-07-07T10:09:22.611Z,2.10
2023-07-07T10:14:20.552Z,2.63
2023-07-07T10:17:01.438Z,2.03
2023-07-07T10:19:28.520Z,2.30
2023-07-07T10:21:55.498Z,2.42
2023-07-07T10:24:22.339Z,2.67
2023-07-07T10:26:49.207Z,2.33
2023-07-07T10:29:24.938Z,2.13
2023-07-07T10:31:52.752Z,2.00
2023-07-07T10:34:32.116Z,2.13
2023-07-07T10:36:59.677Z,2.70
2023-07-07T10:39:32.894Z,2.22
2023-07-07T10:41:59.606Z,2.40
2023-07-07T10:44:28.303Z,2.35
2023-07-07T10:46:55.348Z,2.42
2023-07-07T10:49:27.709Z,2.75
2023-07-07T10:55:21.086Z,2.00
2023-07-07T10:58:27.715Z,2.50
2023-07-07T11:01:08.011Z,2.30
2023-07-07T11:04:05.551Z,2.40
2023-07-07T11:06:50.948Z,2.60
2023-07-07T11:09:46.433Z,2.17
2023-07-07T11:12:33.075Z,2.50
2023-07-07T11:15:06.855Z,2.40
2023-07-07T11:17:46.841Z,2.67
2023-07-07T11:20:22.277Z,2.55
2023-07-07T11:23:21.716Z,2.13
2023-07-07T11:26:10.100Z,2.45
2023-07-07T11:29:10.403Z,2.47
2023-07-07T11:32:02.828Z,2.10
2023-07-07T11:34:34.767Z,2.22
2023-07-07T11:37:13.275Z,2.15
2023-07-07T11:39:50.434Z,2.50
2023-07-07T11:42:26.426Z,2.33
2023-07-07T11:45:25.745Z,2.38
2023-07-07T11:48:00.984Z,2.30
2023-07-07T11:50:33.604Z,2.85
2023-07-07T11:53:19.233Z,2.33
2023-07-07T11:56:07.497Z,2.40
2023-07-07T11:58:45.310Z,2.35
2023-07-07T12:01:19.184Z,2.90
2023-07-07T12:03:49.247Z,2.70
2023-07-07T12:06:22.177Z,2.30
2023-07-07T12:09:15.726Z,2.50
2023-07-07T12:11:50.465Z,2.30
2023-07-07T12:14:50.756Z,2.30
2023-07-07T12:17:34.892Z,2.67
2023-07-07T12:20:09.355Z,2.72
2023-07-07T12:22:41.502Z,2.33
2023-07-07T12:25:25.282Z,2.65
2023-07-07T12:27:53.636Z,2.78
2023-07-07T12:30:26.483Z,2.75
2023-07-07T12:32:54.122Z,2.25
2023-07-07T12:35:32.701Z,2.08
2023-07-07T12:38:18.809Z,2.60
2023-07-07T12:40:46.541Z,2.78
2023-07-07T12:43:22.004Z,2.55
2023-07-07T12:45:51.252Z,3.08
2023-07-07T12:48:23.615Z,1.98
2023-07-07T12:50:50.813Z,2.67
2023-07-07T12:53:29.229Z,2.35
2023-07-07T12:56:08.401Z,2.72
2023-07-07T12:58:38.428Z,2.55
2023-07-07T13:01:11.560Z,2.63
2023-07-07T13:03:59.508Z,2.50
2023-07-07T13:06:32.563Z,2.95
2023-07-07T13:09:17.829Z,2.90
2023-07-07T13:11:55.020Z,2.60
2023-07-07T13:14:42.383Z,2.33
2023-07-07T13:17:23.814Z,2.92
2023-07-07T13:19:51.938Z,2.60
2023-07-07T13:22:26.061Z,2.53
2023-07-07T13:24:58.172Z,2.45
2023-07-07T13:27:27.722Z,2.53
2023-07-07T13:30:21.295Z,2.10
2023-07-07T13:32:48.009Z,2.45
2023-07-07T13:35:14.961Z,2.33
2023-07-07T13:37:42.049Z,3.00
2023-07-07T13:40:18.218Z,2.50
2023-07-07T13:42:51.052Z,2.40
2023-07-07T13:45:20.684Z,2.40
2023-07-07T13:47:51.006Z,2.42
2023-07-07T13:50:27.640Z,2.72
2023-07-07T13:52:57.601Z,2.60
2023-07-07T13:55:29.220Z,3.13
2023-07-07T13:57:55.961Z,2.80
2023-07-07T14:00:29.760Z,2.38
2023-07-07T14:02:57.179Z,2.50
2023-07-07T14:05:25.267Z,2.38
2023-07-07T14:07:52.071Z,2.58
2023-07-07T14:10:36.934Z,2.70
2023-07-07T14:13:22.135Z,2.47
2023-07-07T14:16:05.256Z,2.65
2023-07-07T14:18:38.247Z,2.67
2023-07-07T14:23:33.456Z,2.72
2023-07-07T14:26:00.466Z,3.08
2023-07-07T14:28:38.681Z,3.05
2023-07-07T14:31:09.486Z,2.83
2023-07-07T14:33:47.029Z,2.60
2023-07-07T14:36:30.804Z,2.40
2023-07-07T14:39:00.649Z,2.83
2023-07-07T14:41:32.962Z,2.72
2023-07-07T14:44:00.071Z,2.65
2023-07-07T14:46:31.983Z,2.97
2023-07-07T14:51:48.994Z,2.50
2023-07-07T14:54:22.390Z,2.88
2023-07-07T14:57:03.439Z,2.50
2023-07-07T14:59:35.842Z,2.72
2023-07-07T15:02:34.869Z,2.40
2023-07-07T15:05:29.119Z,2.40
2023-07-07T15:08:06.371Z,2.40
2023-07-07T15:10:34.330Z,2.55
2023-07-07T15:13:01.120Z,2.40
2023-07-07T15:15:27.869Z,2.40
2023-07-07T15:17:54.591Z,2.17
2023-07-07T15:20:22.474Z,2.80
2023-07-07T15:22:49.247Z,2.60
2023-07-07T15:25:16.081Z,2.60
2023-07-07T15:27:43.183Z,2.70
2023-07-07T15:30:19.092Z,2.85
2023-07-07T15:32:46.171Z,2.60
2023-07-07T15:35:14.541Z,2.40
2023-07-07T15:37:47.051Z,2.25
2023-07-07T15:40:19.983Z,2.65
2023-07-07T15:42:48.643Z,2.78
2023-07-07T15:45:15.456Z,2.42
2023-07-07T15:47:43.845Z,2.97
2023-07-07T15:50:16.834Z,2.72
2023-07-07T15:52:43.607Z,2.63
2023-07-07T15:55:10.473Z,2.40
2023-07-07T15:57:37.297Z,2.70
2023-07-07T16:00:25.910Z,2.30
2023-07-07T16:02:53.107Z,2.15
2023-07-07T16:05:20.120Z,2.67
2023-07-07T16:07:47.029Z,2.33
2023-07-07T16:10:14.909Z,2.30
2023-07-07T16:12:41.735Z,2.13
2023-07-07T16:15:10.642Z,2.92
2023-07-07T16:17:37.634Z,2.58
2023-07-07T16:20:22.030Z,2.47
2023-07-07T16:22:51.037Z,2.30
2023-07-07T16:25:17.820Z,2.05
2023-07-07T16:27:44.996Z,2.65
2023-07-07T16:30:19.204Z,2.47
2023-07-07T16:32:45.997Z,2.25
2023-07-07T16:35:14.437Z,2.72
2023-07-07T16:37:42.158Z,2.30
2023-07-07T16:40:29.265Z,2.50
2023-07-07T16:42:55.976Z,2.40
2023-07-07T16:45:23.283Z,2.55
2023-07-07T16:47:50.968Z,2.20
2023-07-07T16:50:34.005Z,2.42
2023-07-07T16:53:01.659Z,2.63
2023-07-07T16:55:28.941Z,2.70
2023-07-07T16:57:55.793Z,2.63
2023-07-07T17:00:25.565Z,2.58
2023-07-07T17:02:53.344Z,2.40
2023-07-07T17:05:24.265Z,2.50
2023-07-07T17:07:51.448Z,2.40
2023-07-07T17:10:37.736Z,2.35
2023-07-07T17:13:05.525Z,2.50
2023-07-07T17:15:32.934Z,2.60
2023-07-07T17:18:01.675Z,2.33
2023-07-07T17:20:34.782Z,2.33
2023-07-07T17:23:01.901Z,2.38
2023-07-07T17:25:29.021Z,2.25
2023-07-07T17:27:55.982Z,2.58
2023-07-07T17:30:27.744Z,2.30
2023-07-07T17:35:23.944Z,2.50
2023-07-07T17:37:51.218Z,2.30
2023-07-07T17:40:33.884Z,2.40
2023-07-07T17:43:00.701Z,2.25
2023-07-07T17:45:27.423Z,2.58
2023-07-07T17:47:54.360Z,2.20
2023-07-07T17:50:27.661Z,2.40
2023-07-07T17:52:54.576Z,2.20
2023-07-07T17:55:22.990Z,2.78
2023-07-07T17:57:49.910Z,2.10
2023-07-07T18:00:23.500Z,2.58
2023-07-07T18:02:51.009Z,3.08
2023-07-07T18:05:18.757Z,2.20
2023-07-07T18:07:45.888Z,2.35
2023-07-07T18:10:19.730Z,2.22
2023-07-07T18:12:53.780Z,2.80
2023-07-07T18:15:21.217Z,2.58
2023-07-07T18:18:14.304Z,2.95
2023-07-07T18:21:49.556Z,2.55
2023-07-07T18:23:25.858Z,2.03
2023-07-07T18:25:52.652Z,2.30
2023-07-07T18:28:19.436Z,2.30
2023-07-07T18:30:56.329Z,2.25
2023-07-07T18:33:23.533Z,2.60
2023-07-07T18:35:50.508Z,2.42
2023-07-07T18:38:21.007Z,2.25
2023-07-07T18:40:47.692Z,2.45
2023-07-07T18:43:14.693Z,2.17
2023-07-07T18:45:41.537Z,2.00
2023-07-07T18:48:15.586Z,2.42
2023-07-07T18:50:46.480Z,2.38
2023-07-07T18:53:14.396Z,2.58
2023-07-07T18:55:42.845Z,2.25
2023-07-07T18:58:12.289Z,2.40
2023-07-07T19:00:41.088Z,2.85
2023-07-07T19:03:09.168Z,2.85
2023-07-07T19:05:36.100Z,2.60
2023-07-07T19:08:02.985Z,2.92
2023-07-07T19:10:39.017Z,3.00
2023-07-07T19:13:17.731Z,2.95
2023-07-07T19:15:48.093Z,3.00
2023-07-07T19:18:25.077Z,2.80
2023-07-07T19:20:51.893Z,2.45
2023-07-07T19:23:18.756Z,2.58
2023-07-07T19:25:45.736Z,2.85
2023-07-07T19:28:30.214Z,2.90
2023-07-07T19:30:57.755Z,2.65
2023-07-07T19:33:24.987Z,2.60
2023-07-07T19:35:56.456Z,2.42
2023-07-07T19:38:25.425Z,2.67
2023-07-07T19:41:01.316Z,2.80
2023-07-07T19:43:28.226Z,2.97
2023-07-07T19:45:59.622Z,2.75
2023-07-07T19:48:27.008Z,2.80
2023-07-07T19:50:57.553Z,2.42
2023-07-07T19:53:24.407Z,2.17
2023-07-07T19:55:52.857Z,2.45
2023-07-07T19:58:21.193Z,2.78
2023-07-07T20:00:48.503Z,2.35
2023-07-07T20:03:15.352Z,2.55
2023-07-07T20:05:42.357Z,2.58
2023-07-07T20:08:16.775Z,2.40
2023-07-07T20:10:44.723Z,2.38
2023-07-07T20:13:12.244Z,2.38
2023-07-07T20:15:40.363Z,2.63
2023-07-07T20:18:11.099Z,2.40
2023-07-07T20:20:37.884Z,2.80
2023-07-07T20:23:12.225Z,2.75
2023-07-07T20:25:39.461Z,2.70
2023-07-07T20:28:07.135Z,2.95
2023-07-07T20:30:34.042Z,2.75
2023-07-07T20:33:00.750Z,2.80
2023-07-07T20:35:27.584Z,2.72
2023-07-07T20:37:54.327Z,2.80
2023-07-07T20:40:24.758Z,2.50
2023-07-07T20:42:52.270Z,2.90
2023-07-07T20:45:20.628Z,2.47
2023-07-07T20:47:47.786Z,2.50
2023-07-07T20:50:19.594Z,2.83
2023-07-07T20:52:46.502Z,3.17
2023-07-07T20:55:15.626Z,3.00
2023-07-07T20:57:42.732Z,2.78
2023-07-07T21:00:22.844Z,2.80
2023-07-07T21:02:50.576Z,2.60
2023-07-07T21:05:17.805Z,2.90
2023-07-07T21:07:45.231Z,2.80
2023-07-07T21:10:33.533Z,3.20
2023-07-07T21:13:00.883Z,2.92
2023-07-07T21:15:28.489Z,2.90
2023-07-07T21:17:55.368Z,3.30
2023-07-07T21:20:55.849Z,3.40
2023-07-07T21:23:24.052Z,3.47
2023-07-07T21:25:57.990Z,3.95
2023-07-07T21:28:24.831Z,3.13
2023-07-07T21:30:51.609Z,3.00
2023-07-07T21:33:18.679Z,3.33
2023-07-07T21:35:45.535Z,3.40
2023-07-07T21:38:14.168Z,3.60
2023-07-07T21:40:41.246Z,2.75
2023-07-07T21:43:07.988Z,3.33
2023-07-07T21:45:35.409Z,4.35
2023-07-07T21:48:05.121Z,2.97
2023-07-07T21:50:32.449Z,3.85
2023-07-07T21:52:59.801Z,3.83
2023-07-07T21:55:27.084Z,3.95
2023-07-07T21:57:58.164Z,3.70
2023-07-07T22:00:28.120Z,3.40
2023-07-07T22:02:59.031Z,4.07
2023-07-07T22:05:27.919Z,3.42
2023-07-07T22:07:55.772Z,3.72
2023-07-07T22:10:44.918Z,3.83
2023-07-07T22:13:12.714Z,3.50
2023-07-07T22:15:40.480Z,3.97
2023-07-07T22:18:18.231Z,4.00
2023-07-07T22:21:01.646Z,3.88
2023-07-07T22:23:29.664Z,3.88
2023-07-07T22:25:57.238Z,3.47
2023-07-07T22:28:30.049Z,3.80
2023-07-07T22:30:59.663Z,4.15
2023-07-07T22:33:28.356Z,4.05
2023-07-07T22:35:55.666Z,3.90
2023-07-07T22:38:26.363Z,4.38
2023-07-07T22:40:56.154Z,4.28
2023-07-07T22:43:24.084Z,4.18
2023-07-07T22:45:54.040Z,3.72
2023-07-07T22:48:21.374Z,3.80
2023-07-07T22:50:49.228Z,3.70
2023-07-07T22:53:16.516Z,4.18
2023-07-07T22:55:46.100Z,3.90
2023-07-07T22:58:15.025Z,4.32
2023-07-07T23:00:42.290Z,4.15
2023-07-07T23:03:09.350Z,3.92
2023-07-07T23:05:39.473Z,4.38
2023-07-07T23:08:33.033Z,3.97
2023-07-07T23:10:59.831Z,4.00
2023-07-07T23:13:26.968Z,4.47
2023-07-07T23:15:53.724Z,4.20
2023-07-07T23:18:20.986Z,4.00
2023-07-07T23:20:47.777Z,4.15
2023-07-07T23:23:21.411Z,4.22
2023-07-07T23:25:48.222Z,4.18
2023-07-07T23:28:15.049Z,3.95
2023-07-07T23:31:07.853Z,4.13
2023-07-07T23:33:36.409Z,4.65
2023-07-07T23:36:13.292Z,4.28
2023-07-07T23:38:40.116Z,3.80
2023-07-07T23:41:10.380Z,4.07
2023-07-07T23:43:37.168Z,3.78
2023-07-07T23:46:08.653Z,4.28
2023-07-07T23:48:35.545Z,4.40
2023-07-07T23:51:03.001Z,4.20
2023-07-07T23:53:30.816Z,4.20
2023-07-07T23:55:58.205Z,4.68
2023-07-07T23:58:26.996Z,4.88
